HCD weather

Estancia La Candelaria Heliport
San Martin De Los Andes, Neuquén Province, Argentina

Public forecast

Using degrees Celsius for public forecast. Weather courtesy of forecast.io.

METAR (pilot weather report)

Report is more than 6 hours old.

Closest report is Aviador C. Campos Airport, 10.7 nm (19.8 km) E. Retrieved 2019/03/18 19:27 UTC (2 days ago):

SAZY 181927Z 25020G31KT 9999 SCT040 12/M03 Q1016

TAF (pilot weather forecast)

Forecast is more than 12 hours old.

Closest forecast is Aviador C. Campos Airport, 10.7 nm (19.8 km) E. Retrieved 2019/02/23 00:18 UTC (26 days ago):

TAF SAZY 232300Z 2400/2424 25020G30KT CAVOK TX16/2418Z TN03/2410Z TEMPO 2405/2412 27010KT